| time (UTC) | temp F | wind direction | speed knots | gust knots | rain 1hr in | rain 24hr in | rain mn in | humidity % | barometer mb |
| 20260507031517 | 51 | 22 | 0.0 | 0.0 | 0.00 | 0.00 | 0.00 | 29 | 1017.7 |
| 20260507030019 | 52 | 22 | 0.0 | 0.9 | 0.00 | 0.00 | 0.00 | 28 | 1017.8 |
| 20260507024529 | 52 | 22 | 0.0 | 0.0 | 0.00 | 0.00 | 0.00 | 25 | 1017.9 |
| 20260507023016 | 53 | 21 | 0.0 | 0.0 | 0.00 | 0.00 | 0.00 | 23 | 1017.6 |
| 20260507021515 | 54 | 19 | 0.0 | 0.0 | 0.00 | 0.00 | 0.00 | 22 | 1017.6 |
| 20260507020015 | 55 | 19 | 0.0 | 1.7 | 0.00 | 0.00 | 0.00 | 22 | 1017.7 |
| 20260507014531 | 55 | 19 | 0.9 | 3.5 | 0.00 | 0.00 | 0.00 | 20 | 1017.6 |
| 20260507013013 | 55 | 18 | 2.6 | 5.2 | 0.00 | 0.00 | 0.00 | 19 | 1017.7 |
| 20260507011526 | 56 | 360 | 2.6 | 7.8 | 0.00 | 0.00 | 0.00 | 18 | 1017.6 |
| 20260507010017 | 57 | 360 | 5.2 | 8.7 | 0.00 | 0.00 | 0.00 | 17 | 1017.7 |
| 20260507004511 | 57 | 360 | 5.2 | 9.6 | 0.00 | 0.00 | 0.00 | 17 | 1017.7 |
| 20260507003016 | 58 | 360 | 3.5 | 9.6 | 0.00 | 0.00 | 0.00 | 17 | 1017.8 |
| 20260507001510 | 57 | 18 | 5.2 | 11.3 | 0.00 | 0.00 | 0.00 | 17 | 1017.9 |
| 20260507000009 | 58 | 17 | 8.7 | 18.2 | 0.00 | 0.00 | 0.00 | 15 | 1018.1 |
| 20260506234507 | 59 | 360 | 6.1 | 11.3 | 0.00 | 0.00 | 0.00 | 15 | 1018.1 |
| 20260506233006 | 58 | 20 | 5.2 | 10.4 | 0.00 | 0.00 | 0.00 | 16 | 1018.2 |
| 20260506231506 | 59 | 17 | 8.7 | 16.5 | 0.00 | 0.00 | 0.00 | 15 | 1018.4 |
| 20260506230010 | 58 | 18 | 7.8 | 13.9 | 0.00 | 0.00 | 0.00 | 16 | 1018.5 |
| 20260506224504 | 59 | 360 | 8.7 | 17.4 | 0.00 | 0.00 | 0.00 | 16 | 1018.5 |
| 20260506223003 | 59 | 360 | 7.0 | 12.2 | 0.00 | 0.00 | 0.00 | 17 | 1018.6 |
| 20260506221502 | 58 | 360 | 7.8 | 13.0 | 0.00 | 0.00 | 0.00 | 18 | 1018.8 |
| 20260506220002 | 58 | 355 | 9.6 | 20.0 | 0.00 | 0.00 | 0.00 | 15 | 1019.0 |
| 20260506214501 | 58 | 355 | 7.8 | 18.2 | 0.00 | 0.00 | 0.00 | 16 | 1019.1 |
| 20260506213058 | 59 | 20 | 6.1 | 16.5 | 0.00 | 0.00 | 0.00 | 18 | 1019.1 |
| 20260506211600 | 58 | 360 | 8.7 | 19.1 | 0.00 | 0.00 | 0.00 | 18 | 1019.4 |
| 20260506210059 | 57 | 360 | 7.8 | 16.5 | 0.00 | 0.00 | 0.00 | 18 | 1019.6 |
| 20260506204611 | 57 | 360 | 11.3 | 16.5 | 0.00 | 0.00 | 0.00 | 18 | 1019.6 |
| 20260506203055 | 57 | 5 | 7.8 | 14.8 | 0.00 | 0.00 | 0.00 | 18 | 1019.9 |
| 20260506201554 | 58 | 355 | 10.4 | 14.8 | 0.00 | 0.00 | 0.00 | 18 | 1020.0 |
| 20260506200052 | 57 | 360 | 3.5 | 17.4 | 0.00 | 0.00 | 0.00 | 22 | 1020.3 |
| 20260506194549 | 57 | 360 | 10.4 | 19.1 | 0.00 | 0.00 | 0.00 | 21 | 1020.6 |
| 20260506193047 | 56 | 360 | 11.3 | 16.5 | 0.00 | 0.00 | 0.00 | 23 | 1020.6 |
| 20260506191545 | 55 | 15 | 6.1 | 14.8 | 0.00 | 0.00 | 0.00 | 20 | 1020.8 |
| 20260506190044 | 55 | 5 | 7.8 | 13.9 | 0.00 | 0.00 | 0.00 | 22 | 1020.9 |
| 20260506184545 | 55 | 360 | 7.0 | 16.5 | 0.00 | 0.00 | 0.00 | 19 | 1021.1 |
| 20260506183044 | 54 | 360 | 13.9 | 19.1 | 0.00 | 0.00 | 0.00 | 22 | 1021.4 |
| 20260506181540 | 54 | 21 | 10.4 | 20.9 | 0.00 | 0.00 | 0.00 | 20 | 1021.3 |
| 20260506180039 | 54 | 360 | 6.1 | 20.9 | 0.00 | 0.00 | 0.00 | 21 | 1021.7 |
| 20260506174537 | 54 | 19 | 9.6 | 20.9 | 0.00 | 0.00 | 0.00 | 21 | 1021.8 |
| 20260506173033 | 53 | 5 | 14.8 | 22.6 | 0.00 | 0.00 | 0.00 | 20 | 1021.9 |
| 20260506171533 | 53 | 360 | 13.0 | 20.9 | 0.00 | 0.00 | 0.00 | 22 | 1022.0 |
| 20260506170029 | 52 | 5 | 9.6 | 16.5 | 0.00 | 0.00 | 0.00 | 24 | 1022.1 |
| 20260506164528 | 52 | 360 | 9.6 | 16.5 | 0.00 | 0.00 | 0.00 | 23 | 1022.0 |
| 20260506163026 | 51 | 360 | 8.7 | 18.2 | 0.00 | 0.00 | 0.00 | 24 | 1022.1 |
| 20260506161523 | 51 | 9 | 6.1 | 18.2 | 0.00 | 0.00 | 0.00 | 25 | 1022.1 |
| 20260506160019 | 50 | 360 | 10.4 | 18.2 | 0.00 | 0.00 | 0.00 | 25 | 1022.0 |
| 20260506154516 | 50 | 5 | 7.8 | 16.5 | 0.00 | 0.00 | 0.00 | 28 | 1022.0 |
| 20260506153012 | 49 | 360 | 10.4 | 16.5 | 0.00 | 0.00 | 0.00 | 30 | 1022.2 |
| 20260506151509 | 49 | 19 | 10.4 | 18.2 | 0.00 | 0.00 | 0.00 | 31 | 1022.3 |
| 20260506150007 | 48 | 360 | 7.0 | 13.9 | 0.00 | 0.00 | 0.00 | 34 | 1022.1 |
| 20260506144503 | 47 | 360 | 6.1 | 12.2 | 0.00 | 0.00 | 0.00 | 38 | 1022.2 |
| 20260506143057 | 45 | 5 | 6.1 | 12.2 | 0.00 | 0.00 | 0.00 | 38 | 1022.3 |
| 20260506141652 | 45 | 5 | 6.1 | 11.3 | 0.00 | 0.00 | 0.00 | 38 | 1022.4 |
| 20260506134544 | 43 | 360 | 5.2 | 7.8 | 0.00 | 0.00 | 0.00 | 42 | 1022.2 |
| 20260506133037 | 41 | 39 | 4.3 | 9.6 | 0.00 | 0.00 | 0.00 | 44 | 1022.1 |
| 20260506131542 | 40 | 360 | 4.3 | 9.6 | 0.00 | 0.00 | 0.00 | 46 | 1021.9 |
| 20260506130030 | 39 | 38 | 4.3 | 7.8 | 0.00 | 0.00 | 0.00 | 47 | 1021.9 |
| 20260506124525 | 38 | 360 | 3.5 | 7.8 | 0.00 | 0.00 | 0.00 | 49 | 1021.8 |
| 20260506123033 | 36 | 360 | 3.5 | 7.0 | 0.00 | 0.00 | 0.00 | 50 | 1021.8 |
| 20260506121516 | 35 | 9 | 3.5 | 7.0 | 0.00 | 0.00 | 0.00 | 51 | 1021.5 |
| 20260506120023 | 34 | 9 | 3.5 | 7.0 | 0.00 | 0.00 | 0.00 | 52 | 1021.3 |
| 20260506114517 | 33 | 10 | 2.6 | 5.2 | 0.00 | 0.00 | 0.00 | 53 | 1020.8 |
| 20260506113006 | 32 | 19 | 1.7 | 3.5 | 0.00 | 0.00 | 0.00 | 55 | 1020.5 |
| 20260506111506 | 31 | 19 | 0.9 | 2.6 | 0.00 | 0.00 | 0.00 | 56 | 1020.8 |
| 20260506110002 | 32 | 19 | 0.0 | 1.7 | 0.00 | 0.00 | 0.00 | 56 | 1020.4 |
| 20260506104605 | 32 | 19 | 0.0 | 0.9 | 0.00 | 0.00 | 0.00 | 55 | 1020.1 |
| 20260506103105 | 32 | 19 | 0.0 | 0.9 | 0.00 | 0.00 | 0.00 | 53 | 1020.1 |
| 20260506101554 | 33 | 19 | 0.0 | 0.9 | 0.00 | 0.00 | 0.00 | 52 | 1020.1 |
| 20260506100106 | 34 | 19 | 0.9 | 1.7 | 0.00 | 0.00 | 0.00 | 51 | 1020.3 |
| 20260506094600 | 33 | 19 | 0.0 | 1.7 | 0.00 | 0.00 | 0.00 | 53 | 1020.3 |
| 20260506093047 | 34 | 19 | 0.0 | 0.9 | 0.00 | 0.00 | 0.00 | 52 | 1019.9 |
| 20260506091544 | 34 | 19 | 0.0 | 1.7 | 0.00 | 0.00 | 0.00 | 51 | 1019.9 |
| 20260506090042 | 35 | 19 | 0.0 | 0.9 | 0.00 | 0.00 | 0.00 | 49 | 1019.7 |
| 20260506084540 | 35 | 19 | 0.0 | 0.9 | 0.00 | 0.00 | 0.00 | 50 | 1019.6 |
| 20260506083035 | 36 | 19 | 0.0 | 0.9 | 0.00 | 0.00 | 0.00 | 48 | 1019.7 |
| 20260506081532 | 37 | 19 | 0.0 | 1.7 | 0.00 | 0.00 | 0.00 | 46 | 1019.6 |
| 20260506073025 | 38 | 19 | 0.0 | 1.7 | 0.00 | 0.00 | 0.00 | 46 | 1019.1 |
| 20260506071523 | 39 | 19 | 0.0 | 0.9 | 0.00 | 0.00 | 0.00 | 44 | 1019.0 |
| 20260506061513 | 41 | 19 | 0.0 | 1.7 | 0.00 | 0.00 | 0.00 | 40 | 1018.9 |
| 20260506044557 | 45 | 9 | 3.5 | 8.7 | 0.00 | 0.00 | 0.00 | 30 | 1018.1 |
| 20260506043058 | 45 | 9 | 3.5 | 5.2 | 0.00 | 0.00 | 0.00 | 31 | 1018.2 |
| 20260506041555 | 46 | 10 | 3.5 | 7.0 | 0.00 | 0.00 | 0.00 | 30 | 1018.3 |
| 20260506040055 | 46 | 10 | 3.5 | 9.6 | 0.00 | 0.00 | 0.00 | 29 | 1018.3 |
| 20260506034611 | 47 | 9 | 4.3 | 9.6 | 0.00 | 0.00 | 0.00 | 29 | 1018.2 |
| 20260506033051 | 47 | 9 | 3.5 | 8.7 | 0.00 | 0.00 | 0.00 | 28 | 1018.2 |